createdAt,value
2017-09-03T00:00:01.679Z,0
2017-09-03T00:01:01.486Z,0
2017-09-03T00:02:01.216Z,0
2017-09-03T00:03:01.907Z,0
2017-09-03T00:04:01.643Z,0
2017-09-03T00:05:01.079Z,0
2017-09-03T00:06:01.438Z,0
2017-09-03T00:07:02.415Z,0
2017-09-03T00:08:01.813Z,0
2017-09-03T00:09:02.266Z,0
2017-09-03T00:10:02.606Z,0
2017-09-03T00:11:03.058Z,0
2017-09-03T00:12:03.615Z,0
2017-09-03T00:13:03.934Z,0
2017-09-03T00:14:04.570Z,0
2017-09-03T00:15:04.931Z,0
2017-09-03T00:16:04.884Z,0
2017-09-03T00:17:05.320Z,0
2017-09-03T00:18:04.953Z,0
2017-09-03T00:19:05.321Z,0
2017-09-03T00:20:05.105Z,0
2017-09-03T00:21:05.380Z,0
2017-09-03T00:22:05.124Z,0
2017-09-03T00:23:05.154Z,0
2017-09-03T00:24:05.487Z,0
2017-09-03T00:25:04.957Z,0
2017-09-03T00:26:05.625Z,0
2017-09-03T00:27:05.035Z,0
2017-09-03T00:28:05.381Z,0
2017-09-03T00:29:05.678Z,0
2017-09-03T00:30:05.421Z,0
2017-09-03T00:31:05.773Z,0
2017-09-03T00:32:06.146Z,0
2017-09-03T00:33:06.889Z,0
2017-09-03T00:34:06.249Z,0
2017-09-03T00:35:07.251Z,0
2017-09-03T00:36:06.945Z,0
2017-09-03T00:37:06.964Z,0
2017-09-03T00:38:06.988Z,0
2017-09-03T00:39:07.041Z,0
2017-09-03T00:40:07.153Z,0
2017-09-03T00:41:06.534Z,0
2017-09-03T00:42:07.267Z,0
2017-09-03T00:43:07.227Z,0
2017-09-03T00:44:07.280Z,0
2017-09-03T00:45:07.480Z,0
2017-09-03T00:46:06.423Z,0
2017-09-03T00:47:07.045Z,0
2017-09-03T00:48:07.582Z,0
2017-09-03T00:49:07.242Z,0
2017-09-03T00:50:07.743Z,0
2017-09-03T00:51:07.648Z,0
2017-09-03T00:52:07.683Z,0
2017-09-03T00:53:07.797Z,0
2017-09-03T00:54:07.674Z,0
2017-09-03T00:55:07.827Z,0
2017-09-03T00:56:07.483Z,0
2017-09-03T00:57:07.822Z,0
2017-09-03T00:58:08.143Z,0
2017-09-03T00:59:07.853Z,0
2017-09-03T01:00:08.327Z,0
2017-09-03T01:01:08.548Z,0
2017-09-03T01:02:08.346Z,0
2017-09-03T01:03:09.043Z,0
2017-09-03T01:04:09.081Z,0
2017-09-03T01:05:08.846Z,0
2017-09-03T01:06:08.814Z,0
2017-09-03T01:07:09.212Z,0
2017-09-03T01:08:09.226Z,0
2017-09-03T01:09:09.288Z,0
2017-09-03T01:10:09.279Z,0
2017-09-03T01:11:08.680Z,0
2017-09-03T01:12:08.799Z,0
2017-09-03T01:13:09.768Z,0
2017-09-03T01:14:08.921Z,0
2017-09-03T01:15:09.832Z,0
2017-09-03T01:16:09.277Z,0
2017-09-03T01:17:09.907Z,0
2017-09-03T01:18:09.989Z,0
2017-09-03T01:19:09.970Z,0
2017-09-03T01:20:09.981Z,0
2017-09-03T01:21:10.038Z,0
2017-09-03T01:22:10.040Z,0
2017-09-03T01:23:10.135Z,0
2017-09-03T01:24:09.787Z,0
2017-09-03T01:25:10.587Z,0
2017-09-03T01:26:09.910Z,0
2017-09-03T01:27:10.536Z,0
2017-09-03T01:28:10.575Z,0
2017-09-03T01:29:10.648Z,0
2017-09-03T01:30:10.280Z,0
2017-09-03T01:31:10.693Z,0
2017-09-03T01:32:10.693Z,0
2017-09-03T01:33:10.467Z,0
2017-09-03T01:34:10.793Z,0
2017-09-03T01:35:10.812Z,0
2017-09-03T01:36:11.142Z,0
2017-09-03T01:37:10.849Z,0
2017-09-03T01:38:10.899Z,0
2017-09-03T01:39:10.997Z,0
2017-09-03T01:40:11.044Z,0
2017-09-03T01:41:10.388Z,0
2017-09-03T01:42:11.047Z,0
2017-09-03T01:43:10.734Z,0
2017-09-03T01:44:10.785Z,0
2017-09-03T01:45:11.226Z,0
2017-09-03T01:46:10.580Z,0
2017-09-03T01:47:11.437Z,0
2017-09-03T01:48:11.805Z,0
2017-09-03T01:49:11.522Z,0
2017-09-03T01:50:11.604Z,0
2017-09-03T01:51:11.606Z,0
2017-09-03T01:52:11.966Z,0
2017-09-03T01:53:12.272Z,0
2017-09-03T01:54:12.317Z,0
2017-09-03T01:55:12.666Z,0
2017-09-03T01:56:12.054Z,0
2017-09-03T01:57:12.795Z,0
2017-09-03T01:58:12.813Z,0
2017-09-03T01:59:12.501Z,0
2017-09-03T02:00:12.847Z,0
2017-09-03T02:01:13.241Z,0
2017-09-03T02:02:13.250Z,0
2017-09-03T02:03:13.991Z,0
2017-09-03T02:04:14.445Z,0
2017-09-03T02:05:13.784Z,0
2017-09-03T02:06:13.757Z,0
2017-09-03T02:07:14.065Z,0
2017-09-03T02:08:13.800Z,0
2017-09-03T02:09:14.206Z,0
2017-09-03T02:10:14.462Z,0
2017-09-03T02:11:14.226Z,0
2017-09-03T02:12:13.622Z,0
2017-09-03T02:13:14.623Z,0
2017-09-03T02:14:14.396Z,0
2017-09-03T02:15:15.068Z,0
2017-09-03T02:16:14.846Z,0
2017-09-03T02:17:14.791Z,0
2017-09-03T02:18:15.431Z,0
2017-09-03T02:19:15.184Z,0
2017-09-03T02:20:15.494Z,0
2017-09-03T02:21:14.903Z,0
2017-09-03T02:22:15.255Z,0
2017-09-03T02:23:15.573Z,0
2017-09-03T02:24:15.641Z,0
2017-09-03T02:25:15.632Z,0
2017-09-03T02:26:15.698Z,0
2017-09-03T02:27:15.694Z,0
2017-09-03T02:28:15.433Z,0
2017-09-03T02:29:15.814Z,0
2017-09-03T02:30:15.793Z,0
2017-09-03T02:31:15.215Z,0
2017-09-03T02:32:15.292Z,0
2017-09-03T02:33:16.261Z,0
2017-09-03T02:34:15.647Z,0
2017-09-03T02:35:16.300Z,0
2017-09-03T02:36:15.725Z,0
2017-09-03T02:37:15.762Z,0
2017-09-03T02:38:16.733Z,0
2017-09-03T02:39:16.486Z,0
2017-09-03T02:40:16.836Z,0
2017-09-03T02:41:16.565Z,0
2017-09-03T02:42:16.608Z,0
2017-09-03T02:43:16.936Z,0
2017-09-03T02:44:16.941Z,0
2017-09-03T02:45:16.661Z,0
2017-09-03T02:46:16.480Z,0
2017-09-03T02:47:17.144Z,0
2017-09-03T02:48:17.168Z,0
2017-09-03T02:49:17.201Z,0
2017-09-03T02:50:17.892Z,0
2017-09-03T02:51:17.589Z,0
2017-09-03T02:52:17.257Z,0
2017-09-03T02:53:17.704Z,0
2017-09-03T02:54:18.342Z,0
2017-09-03T02:55:18.056Z,0
2017-09-03T02:56:18.148Z,0
2017-09-03T02:57:18.194Z,0
2017-09-03T02:58:18.196Z,0
2017-09-03T02:59:18.249Z,0
2017-09-03T03:00:18.555Z,0
2017-09-03T03:01:18.259Z,0
2017-09-03T03:02:18.092Z,0
2017-09-03T03:03:17.746Z,0
2017-09-03T03:04:23.391Z,0
2017-09-03T03:05:24.103Z,0
2017-09-03T03:06:23.886Z,0
2017-09-03T03:07:24.238Z,0
2017-09-03T03:08:23.910Z,0
2017-09-03T03:09:23.944Z,0
2017-09-03T03:10:24.092Z,0
2017-09-03T03:11:24.662Z,0
2017-09-03T03:12:24.992Z,0
2017-09-03T03:13:24.446Z,0
2017-09-03T03:14:25.092Z,0
2017-09-03T03:15:24.566Z,0
2017-09-03T03:16:24.903Z,0
2017-09-03T03:17:25.001Z,0
2017-09-03T03:18:24.998Z,0
2017-09-03T03:19:25.021Z,0
2017-09-03T03:20:25.329Z,0
2017-09-03T03:21:26.003Z,0
2017-09-03T03:22:25.748Z,0
2017-09-03T03:23:26.408Z,0
2017-09-03T03:24:26.110Z,0
2017-09-03T03:25:26.149Z,0
2017-09-03T03:26:26.166Z,0
2017-09-03T03:27:26.526Z,0
2017-09-03T03:28:26.208Z,0
2017-09-03T03:29:26.542Z,0
2017-09-03T03:30:26.914Z,0
2017-09-03T03:31:26.942Z,0
2017-09-03T03:32:27.297Z,0
2017-09-03T03:33:27.020Z,0
2017-09-03T03:34:27.648Z,0
2017-09-03T03:35:27.681Z,0
2017-09-03T03:36:27.582Z,0
2017-09-03T03:37:27.737Z,0
2017-09-03T03:38:27.477Z,0
2017-09-03T03:39:27.509Z,0
2017-09-03T03:40:28.143Z,0
2017-09-03T03:41:28.173Z,0
2017-09-03T03:42:27.875Z,0
2017-09-03T03:43:27.908Z,0
2017-09-03T03:44:27.974Z,0
2017-09-03T03:45:27.661Z,0
2017-09-03T03:46:28.339Z,0
2017-09-03T03:47:28.407Z,0
2017-09-03T03:48:28.070Z,0
2017-09-03T03:49:28.750Z,0
2017-09-03T03:50:28.445Z,0
2017-09-03T03:51:28.208Z,0
2017-09-03T03:52:28.569Z,0
2017-09-03T03:53:28.580Z,4
2017-09-03T03:54:28.614Z,4
2017-09-03T03:55:28.711Z,4
2017-09-03T03:56:28.373Z,0
2017-09-03T03:57:29.116Z,4
2017-09-03T03:58:29.123Z,4
2017-09-03T03:59:29.116Z,8
2017-09-03T04:00:29.172Z,4
2017-09-03T04:01:29.486Z,8
2017-09-03T04:02:28.939Z,4
2017-09-03T04:03:29.624Z,8
2017-09-03T04:04:29.616Z,8
2017-09-03T04:05:29.972Z,8
2017-09-03T04:06:30.011Z,12
2017-09-03T04:07:29.396Z,12
2017-09-03T04:08:30.072Z,16
2017-09-03T04:09:29.460Z,16
2017-09-03T04:10:29.811Z,20
2017-09-03T04:11:29.831Z,20
2017-09-03T04:12:30.197Z,24
2017-09-03T04:13:30.200Z,28
2017-09-03T04:14:30.260Z,32
2017-09-03T04:15:29.970Z,32
2017-09-03T04:16:30.640Z,36
2017-09-03T04:17:30.663Z,40
2017-09-03T04:18:30.388Z,48
2017-09-03T04:19:31.045Z,52
2017-09-03T04:20:31.063Z,64
2017-09-03T04:21:31.079Z,68
2017-09-03T04:22:31.119Z,76
2017-09-03T04:23:30.541Z,88
2017-09-03T04:24:31.222Z,96
2017-09-03T04:25:31.546Z,112
2017-09-03T04:26:31.274Z,128
2017-09-03T04:27:31.612Z,148
2017-09-03T04:28:31.328Z,176
2017-09-03T04:29:31.666Z,200
2017-09-03T04:30:31.387Z,220
2017-09-03T04:31:31.741Z,248
2017-09-03T04:32:31.446Z,280
2017-09-03T04:33:31.476Z,304
2017-09-03T04:34:31.505Z,336
2017-09-03T04:35:31.847Z,364
2017-09-03T04:36:31.265Z,388
2017-09-03T04:37:31.296Z,412
2017-09-03T04:38:31.627Z,436
2017-09-03T04:39:32.309Z,460
2017-09-03T04:40:32.030Z,484
2017-09-03T04:41:32.061Z,512
2017-09-03T04:42:32.388Z,540
2017-09-03T04:43:32.111Z,568
2017-09-03T04:44:32.453Z,600
2017-09-03T04:45:32.804Z,624
2017-09-03T04:46:32.848Z,648
2017-09-03T04:47:33.177Z,676
2017-09-03T04:48:33.241Z,696
2017-09-03T04:49:33.256Z,724
2017-09-03T04:50:32.968Z,748
2017-09-03T04:51:33.273Z,768
2017-09-03T04:52:33.295Z,780
2017-09-03T04:53:33.631Z,800
2017-09-03T04:54:33.346Z,828
2017-09-03T04:55:33.395Z,852
2017-09-03T04:56:33.743Z,880
2017-09-03T04:57:34.412Z,904
2017-09-03T04:58:33.801Z,924
2017-09-03T04:59:34.477Z,940
2017-09-03T05:00:34.486Z,964
2017-09-03T05:01:34.580Z,988
2017-09-03T05:02:34.586Z,1024
2017-09-03T05:03:34.906Z,1056
2017-09-03T05:04:35.291Z,1088
2017-09-03T05:05:34.685Z,1120
2017-09-03T05:06:35.663Z,1152
2017-09-03T05:07:35.360Z,1188
2017-09-03T05:08:35.429Z,1220
2017-09-03T05:09:35.741Z,1252
2017-09-03T05:10:35.483Z,1288
2017-09-03T05:11:35.817Z,1324
2017-09-03T05:12:35.849Z,1364
2017-09-03T05:13:35.570Z,1404
2017-09-03T05:14:35.575Z,1436
2017-09-03T05:15:35.599Z,1468
2017-09-03T05:16:35.627Z,1496
2017-09-03T05:17:35.654Z,1536
2017-09-03T05:18:36.021Z,1568
2017-09-03T05:19:35.748Z,1608
2017-09-03T05:20:36.089Z,1652
2017-09-03T05:21:35.815Z,1692
2017-09-03T05:22:36.124Z,1724
2017-09-03T05:23:36.469Z,1760
2017-09-03T05:24:36.506Z,1800
2017-09-03T05:25:36.230Z,1836
2017-09-03T05:26:36.570Z,1880
2017-09-03T05:27:36.598Z,1932
2017-09-03T05:28:36.328Z,1984
2017-09-03T05:29:36.059Z,2044
2017-09-03T05:30:37.055Z,2084
2017-09-03T05:31:37.063Z,2128
2017-09-03T05:32:36.451Z,2168
2017-09-03T05:33:36.789Z,2216
2017-09-03T05:34:36.843Z,2268
2017-09-03T05:35:37.219Z,2312
2017-09-03T05:36:37.226Z,2396
2017-09-03T05:37:36.617Z,2456
2017-09-03T05:38:36.957Z,2508
2017-09-03T05:39:36.680Z,2588
2017-09-03T05:40:36.700Z,2640
2017-09-03T05:41:37.405Z,2768
2017-09-03T05:42:37.756Z,3024
2017-09-03T05:43:37.183Z,3108
2017-09-03T05:44:37.864Z,3248
2017-09-03T05:45:38.194Z,3360
2017-09-03T05:46:37.894Z,3364
2017-09-03T05:47:38.275Z,3388
2017-09-03T05:48:38.289Z,3288
2017-09-03T05:49:38.325Z,3388
2017-09-03T05:50:38.364Z,3484
2017-09-03T05:51:38.396Z,3508
2017-09-03T05:52:37.816Z,3628
2017-09-03T05:53:38.455Z,3720
2017-09-03T05:54:38.490Z,3872
2017-09-03T05:55:37.869Z,4032
2017-09-03T05:56:38.208Z,4160
2017-09-03T05:57:38.894Z,4316
2017-09-03T05:58:38.588Z,4448
2017-09-03T05:59:39.257Z,4368
2017-09-03T06:00:38.971Z,4492
2017-09-03T06:01:39.354Z,4636
2017-09-03T06:02:39.020Z,4796
2017-09-03T06:03:39.375Z,5096
2017-09-03T06:04:39.410Z,5400
2017-09-03T06:05:38.811Z,5476
2017-09-03T06:06:39.793Z,5856
2017-09-03T06:07:39.489Z,6060
2017-09-03T06:08:39.865Z,6764
2017-09-03T06:09:39.891Z,7624
2017-09-03T06:10:39.278Z,7888
2017-09-03T06:11:39.956Z,8208
2017-09-03T06:12:40.288Z,8204
2017-09-03T06:13:40.329Z,8180
2017-09-03T06:14:39.737Z,8244
2017-09-03T06:15:40.070Z,8360
2017-09-03T06:16:40.122Z,8040
2017-09-03T06:17:40.471Z,7756
2017-09-03T06:18:40.496Z,7544
2017-09-03T06:19:40.828Z,7356
2017-09-03T06:20:40.859Z,7192
2017-09-03T06:21:40.892Z,7068
2017-09-03T06:22:40.929Z,7092
2017-09-03T06:23:40.961Z,6760
2017-09-03T06:24:40.995Z,6392
2017-09-03T06:25:41.030Z,6232
2017-09-03T06:26:41.079Z,5648
2017-09-03T06:27:40.793Z,5404
2017-09-03T06:28:40.803Z,4740
2017-09-03T06:29:41.177Z,4584
2017-09-03T06:30:41.218Z,4744
2017-09-03T06:31:41.246Z,4720
2017-09-03T06:32:41.289Z,4700
2017-09-03T06:33:41.330Z,4468
2017-09-03T06:34:41.058Z,4020
2017-09-03T06:35:41.405Z,3828
2017-09-03T06:36:41.112Z,3784
2017-09-03T06:37:41.467Z,3852
2017-09-03T06:38:41.807Z,3896
2017-09-03T06:39:41.539Z,3860
2017-09-03T06:40:41.879Z,3892
2017-09-03T06:41:41.602Z,4060
2017-09-03T06:42:41.957Z,3736
2017-09-03T06:43:41.986Z,3372
2017-09-03T06:44:42.025Z,3708
2017-09-03T06:45:41.755Z,3676
2017-09-03T06:46:42.056Z,3688
2017-09-03T06:47:41.564Z,4100
2017-09-03T06:48:42.214Z,3564
2017-09-03T06:49:42.194Z,3772
2017-09-03T06:50:41.953Z,4028
2017-09-03T06:51:41.966Z,4296
2017-09-03T06:52:42.312Z,4528
2017-09-03T06:53:41.701Z,4428
2017-09-03T06:54:42.386Z,3832
2017-09-03T06:55:42.411Z,4216
2017-09-03T06:56:41.788Z,4468
2017-09-03T06:57:42.503Z,4772
2017-09-03T06:58:43.440Z,5212
2017-09-03T06:59:43.192Z,6140
2017-09-03T07:00:42.598Z,5984
2017-09-03T07:01:43.260Z,5128
2017-09-03T07:02:43.692Z,4844
2017-09-03T07:03:43.332Z,5848
2017-09-03T07:04:43.678Z,6172
2017-09-03T07:05:43.410Z,5932
2017-09-03T07:06:43.474Z,5956
2017-09-03T07:07:43.745Z,6116
2017-09-03T07:08:43.516Z,7568
2017-09-03T07:09:44.195Z,7644
2017-09-03T07:10:43.886Z,9536
2017-09-03T07:11:44.255Z,12584
2017-09-03T07:12:43.664Z,11432
2017-09-03T07:13:43.674Z,12524
2017-09-03T07:14:44.026Z,15548
2017-09-03T07:15:44.058Z,18112
2017-09-03T07:16:44.396Z,16032
2017-09-03T07:17:44.164Z,19008
2017-09-03T07:18:44.203Z,22912
2017-09-03T07:19:44.280Z,25280
2017-09-03T07:20:44.587Z,26624
2017-09-03T07:21:44.341Z,17344
2017-09-03T07:22:44.644Z,20064
2017-09-03T07:23:44.424Z,17984
2017-09-03T07:24:44.487Z,14436
2017-09-03T07:25:44.539Z,27552
2017-09-03T07:26:44.866Z,29120
2017-09-03T07:27:44.935Z,19360
2017-09-03T07:28:44.939Z,20736
2017-09-03T07:29:44.678Z,16176
2017-09-03T07:30:45.015Z,20928
2017-09-03T07:31:44.711Z,22400
2017-09-03T07:32:44.743Z,22624
2017-09-03T07:33:45.113Z,30528
2017-09-03T07:34:45.153Z,34368
2017-09-03T07:35:45.192Z,27840
2017-09-03T07:36:44.595Z,17888
2017-09-03T07:37:44.655Z,11368
2017-09-03T07:38:45.342Z,12476
2017-09-03T07:39:45.720Z,11936
2017-09-03T07:40:45.418Z,11332
2017-09-03T07:41:45.485Z,12112
2017-09-03T07:42:45.852Z,12308
2017-09-03T07:43:45.901Z,11688
2017-09-03T07:44:45.947Z,11500
2017-09-03T07:45:46.005Z,10664
2017-09-03T07:46:46.357Z,8812
2017-09-03T07:47:46.386Z,8080
2017-09-03T07:48:46.735Z,7768
2017-09-03T07:49:46.449Z,8080
2017-09-03T07:50:46.156Z,9112
2017-09-03T07:51:47.170Z,9744
2017-09-03T07:52:47.196Z,8820
2017-09-03T07:53:46.909Z,8664
2017-09-03T07:54:47.192Z,9356
2017-09-03T07:55:46.990Z,9672
2017-09-03T07:56:47.333Z,9556
2017-09-03T07:57:47.040Z,9820
2017-09-03T07:58:47.119Z,9968
2017-09-03T07:59:47.151Z,10160
2017-09-03T08:00:47.491Z,9476
2017-09-03T08:01:47.515Z,9852
2017-09-03T08:02:47.712Z,9916
2017-09-03T08:03:47.007Z,10776
2017-09-03T08:04:47.050Z,10840
2017-09-03T08:05:47.760Z,9992
2017-09-03T08:06:47.450Z,9880
2017-09-03T08:07:47.178Z,11336
2017-09-03T08:08:47.880Z,12792
2017-09-03T08:09:47.933Z,11808
2017-09-03T08:10:47.294Z,12004
2017-09-03T08:11:47.348Z,12988
2017-09-03T08:12:48.003Z,12664
2017-09-03T08:13:48.584Z,12700
2017-09-03T08:14:47.772Z,13292
2017-09-03T08:15:48.140Z,13320
2017-09-03T08:16:48.789Z,12872
2017-09-03T08:17:48.503Z,14116
2017-09-03T08:18:48.605Z,17664
2017-09-03T08:19:48.943Z,20096
2017-09-03T08:20:48.962Z,17920
2017-09-03T08:21:48.977Z,16736
2017-09-03T08:22:48.734Z,15776
2017-09-03T08:23:49.133Z,14244
2017-09-03T08:24:49.158Z,13568
2017-09-03T08:25:49.522Z,12996
2017-09-03T08:26:49.541Z,12892
2017-09-03T08:27:49.582Z,12700
2017-09-03T08:28:49.632Z,12420
2017-09-03T08:29:49.672Z,12304
2017-09-03T08:30:49.416Z,12012
2017-09-03T08:31:49.761Z,11728
2017-09-03T08:32:49.470Z,11572
2017-09-03T08:33:49.859Z,11392
2017-09-03T08:34:49.587Z,11160
2017-09-03T08:35:49.948Z,10952
2017-09-03T08:36:50.030Z,10716
2017-09-03T08:37:49.688Z,10588
2017-09-03T08:38:50.062Z,10508
2017-09-03T08:39:49.504Z,10504
2017-09-03T08:40:49.545Z,10580
2017-09-03T08:41:50.248Z,10540
2017-09-03T08:42:49.971Z,10468
2017-09-03T08:43:50.329Z,10436
2017-09-03T08:44:50.379Z,10344
2017-09-03T08:45:50.109Z,10516
2017-09-03T08:46:50.097Z,11236
2017-09-03T08:47:50.498Z,7140
2017-09-03T08:48:50.545Z,11256
2017-09-03T08:49:50.897Z,11588
2017-09-03T08:50:50.327Z,11508
2017-09-03T08:51:50.671Z,11888
2017-09-03T08:52:50.746Z,12320
2017-09-03T08:53:50.769Z,12072
2017-09-03T08:54:50.847Z,11736
2017-09-03T08:55:51.509Z,12172
2017-09-03T08:56:51.571Z,12504
2017-09-03T08:57:51.263Z,12456
2017-09-03T08:58:51.633Z,13144
2017-09-03T08:59:51.687Z,12688
2017-09-03T09:00:51.732Z,12584
2017-09-03T09:01:51.800Z,12260
2017-09-03T09:02:51.694Z,6600
2017-09-03T09:03:51.879Z,8184
2017-09-03T09:04:51.604Z,10200
2017-09-03T09:05:51.989Z,9296
2017-09-03T09:06:51.687Z,10012
2017-09-03T09:07:52.091Z,9592
2017-09-03T09:08:51.788Z,7828
2017-09-03T09:09:52.165Z,7528
2017-09-03T09:10:51.580Z,6848
2017-09-03T09:11:51.975Z,9660
2017-09-03T09:12:52.633Z,10148
2017-09-03T09:13:52.685Z,10864
2017-09-03T09:14:52.699Z,12252
2017-09-03T09:15:52.428Z,12924
2017-09-03T09:16:52.164Z,13836
2017-09-03T09:17:53.167Z,14904
2017-09-03T09:18:53.215Z,14412
2017-09-03T09:19:53.240Z,15840
2017-09-03T09:20:53.575Z,16928
2017-09-03T09:21:53.308Z,18112
2017-09-03T09:22:53.659Z,20064
2017-09-03T09:23:53.359Z,15512
2017-09-03T09:24:53.440Z,25216
2017-09-03T09:25:53.795Z,14524
2017-09-03T09:26:53.526Z,19872
2017-09-03T09:27:53.262Z,39456
2017-09-03T09:28:53.969Z,27808
2017-09-03T09:29:53.986Z,34784
2017-09-03T09:30:53.738Z,38720
2017-09-03T09:31:54.074Z,44480
2017-09-03T09:32:53.814Z,10040
2017-09-03T09:33:54.589Z,10944
2017-09-03T09:34:54.692Z,50720
2017-09-03T09:35:54.223Z,44960
2017-09-03T09:36:54.537Z,41568
2017-09-03T09:37:54.609Z,31424
2017-09-03T09:38:54.937Z,42912
2017-09-03T09:39:55.040Z,46560
2017-09-03T09:40:55.047Z,46240
2017-09-03T09:41:54.447Z,45312
2017-09-03T09:42:54.175Z,42176
2017-09-03T09:43:55.193Z,39168
2017-09-03T09:44:54.890Z,45504
2017-09-03T09:45:54.634Z,43264
2017-09-03T09:46:54.359Z,46304
2017-09-03T09:47:55.374Z,49056
2017-09-03T09:48:56.058Z,45120
2017-09-03T09:49:56.107Z,10348
2017-09-03T09:50:55.806Z,10464
2017-09-03T09:51:56.124Z,7448
2017-09-03T09:52:56.504Z,6244
2017-09-03T09:53:56.205Z,6052
2017-09-03T09:54:56.581Z,5980
2017-09-03T09:55:56.630Z,6676
2017-09-03T09:56:56.023Z,7352
2017-09-03T09:57:56.713Z,63360
2017-09-03T09:58:56.456Z,63392
2017-09-03T09:59:56.493Z,64480
2017-09-03T10:00:56.211Z,68384
2017-09-03T10:01:56.910Z,67616
2017-09-03T10:02:56.679Z,64832
2017-09-03T10:03:57.001Z,60608
2017-09-03T10:04:57.023Z,63456
2017-09-03T10:05:56.698Z,62496
2017-09-03T10:06:57.085Z,63520
2017-09-03T10:07:57.465Z,65376
2017-09-03T10:08:57.814Z,65376
2017-09-03T10:09:57.854Z,72192
2017-09-03T10:10:57.594Z,78112
2017-09-03T10:11:57.634Z,81888
2017-09-03T10:12:57.655Z,81472
2017-09-03T10:13:58.042Z,83360
2017-09-03T10:14:58.375Z,81664
2017-09-03T10:15:58.104Z,79488
2017-09-03T10:16:58.454Z,75520
2017-09-03T10:17:58.202Z,74528
2017-09-03T10:18:58.556Z,63200
2017-09-03T10:19:58.577Z,62240
2017-09-03T10:20:59.249Z,58944
2017-09-03T10:21:58.981Z,62752
2017-09-03T10:22:59.321Z,53120
2017-09-03T10:23:58.735Z,55712
2017-09-03T10:24:59.408Z,21536
2017-09-03T10:25:59.169Z,10592
2017-09-03T10:26:58.863Z,14452
2017-09-03T10:27:59.559Z,9976
2017-09-03T10:28:59.281Z,40832
2017-09-03T10:29:58.983Z,56192
2017-09-03T10:30:59.678Z,58848
2017-09-03T10:31:59.712Z,59040
2017-09-03T10:32:59.765Z,60160
2017-09-03T10:33:59.798Z,55072
2017-09-03T10:34:59.832Z,50528
2017-09-03T10:35:59.873Z,53952
2017-09-03T10:36:59.581Z,58560
2017-09-03T10:37:59.948Z,57536
2017-09-03T10:38:59.348Z,54720
2017-09-03T10:40:00.357Z,11328
2017-09-03T10:41:00.380Z,58176
2017-09-03T10:42:00.423Z,60352
2017-09-03T10:42:59.816Z,58688
2017-09-03T10:44:00.502Z,41344
2017-09-03T10:45:00.198Z,19456
2017-09-03T10:46:00.551Z,13936
2017-09-03T10:47:00.575Z,12912
2017-09-03T10:48:00.957Z,11848
2017-09-03T10:49:01.004Z,11360
2017-09-03T10:50:00.692Z,10864
2017-09-03T10:51:00.782Z,10504
2017-09-03T10:52:00.471Z,9604
2017-09-03T10:53:01.451Z,9352
2017-09-03T10:54:01.193Z,9304
2017-09-03T10:55:01.230Z,8696
2017-09-03T10:56:01.312Z,9844
2017-09-03T10:57:00.970Z,10024
2017-09-03T10:58:01.318Z,7868
2017-09-03T10:59:01.051Z,6508
2017-09-03T11:00:01.748Z,5708
2017-09-03T11:01:01.142Z,5400
2017-09-03T11:02:01.780Z,5692
2017-09-03T11:03:01.829Z,5940
2017-09-03T11:04:02.512Z,6352
2017-09-03T11:05:02.552Z,6588
2017-09-03T11:06:02.575Z,6740
2017-09-03T11:07:02.629Z,7672
2017-09-03T11:08:02.670Z,8356
2017-09-03T11:09:02.402Z,8724
2017-09-03T11:10:02.070Z,9080
2017-09-03T11:11:03.128Z,9372
2017-09-03T11:12:03.175Z,9320
2017-09-03T11:13:02.563Z,9376
2017-09-03T11:14:02.903Z,9180
2017-09-03T11:15:03.563Z,9292
2017-09-03T11:16:03.618Z,9580
2017-09-03T11:17:03.632Z,9756
2017-09-03T11:18:03.650Z,9928
2017-09-03T11:19:03.709Z,10032
2017-09-03T11:20:03.851Z,10140
2017-09-03T11:21:03.772Z,10052
2017-09-03T11:22:03.820Z,9836
2017-09-03T11:23:03.547Z,9708
2017-09-03T11:24:03.908Z,9784
2017-09-03T11:25:03.935Z,9892
2017-09-03T11:26:03.957Z,9796
2017-09-03T11:27:03.701Z,10080
2017-09-03T11:28:03.701Z,10060
2017-09-03T11:29:04.062Z,9896
2017-09-03T11:30:05.124Z,9596
2017-09-03T11:31:05.074Z,8820
2017-09-03T11:32:05.416Z,9288
2017-09-03T11:33:05.141Z,8944
2017-09-03T11:34:05.171Z,9448
2017-09-03T11:35:05.658Z,8784
2017-09-03T11:36:04.617Z,9176
2017-09-03T11:37:04.649Z,7680
2017-09-03T11:38:05.639Z,6584
2017-09-03T11:39:05.342Z,6368
2017-09-03T11:40:05.719Z,5968
2017-09-03T11:41:05.454Z,5416
2017-09-03T11:42:05.805Z,4568
2017-09-03T11:43:05.816Z,4492
2017-09-03T11:44:05.865Z,3752
2017-09-03T11:45:05.955Z,3672
2017-09-03T11:46:05.615Z,3524
2017-09-03T11:47:05.960Z,3164
2017-09-03T11:48:06.284Z,3164
2017-09-03T11:49:06.647Z,3428
2017-09-03T11:50:07.368Z,3768
2017-09-03T11:51:07.366Z,4112
2017-09-03T11:52:07.391Z,4676
2017-09-03T11:53:07.445Z,5268
2017-09-03T11:54:07.492Z,5868
2017-09-03T11:55:07.552Z,6908
2017-09-03T11:56:07.551Z,7196
2017-09-03T11:57:07.271Z,7092
2017-09-03T11:58:07.296Z,7000
2017-09-03T11:59:07.667Z,6984
2017-09-03T12:00:07.137Z,6776
2017-09-03T12:01:08.111Z,6476
2017-09-03T12:02:07.833Z,6196
2017-09-03T12:03:07.555Z,6192
2017-09-03T12:04:07.894Z,6368
2017-09-03T12:05:08.274Z,6740
2017-09-03T12:06:08.293Z,6884
2017-09-03T12:07:08.002Z,6936
2017-09-03T12:08:08.432Z,6524
2017-09-03T12:09:08.517Z,6348
2017-09-03T12:10:07.815Z,6276
2017-09-03T12:11:08.798Z,6168
2017-09-03T12:12:08.528Z,5772
2017-09-03T12:13:08.872Z,5628
2017-09-03T12:14:08.906Z,5596
2017-09-03T12:15:08.650Z,5800
2017-09-03T12:16:08.976Z,5976
2017-09-03T12:17:09.016Z,5868
2017-09-03T12:18:09.061Z,6008
2017-09-03T12:19:09.094Z,5752
2017-09-03T12:20:09.195Z,5132
2017-09-03T12:21:09.166Z,4716
2017-09-03T12:22:08.869Z,4556
2017-09-03T12:23:09.200Z,4384
2017-09-03T12:24:09.225Z,4112
2017-09-03T12:25:09.911Z,4012
2017-09-03T12:26:09.330Z,4012
2017-09-03T12:27:09.703Z,4048
2017-09-03T12:28:09.727Z,4128
2017-09-03T12:29:10.385Z,4316
2017-09-03T12:30:10.099Z,4532
2017-09-03T12:31:10.443Z,4532
2017-09-03T12:32:10.780Z,4476
2017-09-03T12:33:10.516Z,4292
2017-09-03T12:34:10.870Z,4188
2017-09-03T12:35:10.589Z,4184
2017-09-03T12:36:10.632Z,4248
2017-09-03T12:37:11.612Z,4316
2017-09-03T12:38:11.629Z,4424
2017-09-03T12:39:11.686Z,4596
2017-09-03T12:40:11.751Z,4752
2017-09-03T12:41:11.758Z,4904
2017-09-03T12:42:11.486Z,5176
2017-09-03T12:43:11.836Z,5392
2017-09-03T12:44:11.561Z,5520
2017-09-03T12:45:12.167Z,5460
2017-09-03T12:46:11.938Z,5524
2017-09-03T12:47:11.990Z,5724
2017-09-03T12:48:12.004Z,5988
2017-09-03T12:49:12.043Z,6256
2017-09-03T12:50:12.079Z,6564
2017-09-03T12:51:11.811Z,6864
2017-09-03T12:52:11.801Z,6876
2017-09-03T12:53:12.198Z,6936
2017-09-03T12:54:12.529Z,7032
2017-09-03T12:55:12.562Z,7084
2017-09-03T12:56:12.295Z,7168
2017-09-03T12:57:12.638Z,7136
2017-09-03T12:58:12.030Z,6848
2017-09-03T12:59:12.666Z,6512
2017-09-03T13:00:12.431Z,6176
2017-09-03T13:01:13.112Z,5868
2017-09-03T13:02:13.113Z,5752
2017-09-03T13:03:13.488Z,5588
2017-09-03T13:04:13.209Z,5548
2017-09-03T13:05:13.893Z,5468
2017-09-03T13:06:13.608Z,5380
2017-09-03T13:07:13.950Z,5252
2017-09-03T13:08:13.997Z,5184
2017-09-03T13:09:13.697Z,5144
2017-09-03T13:10:13.830Z,5112
2017-09-03T13:11:13.150Z,5064
2017-09-03T13:12:14.188Z,4992
2017-09-03T13:13:14.175Z,4884
2017-09-03T13:14:14.222Z,4756
2017-09-03T13:15:14.352Z,4632
2017-09-03T13:16:14.281Z,4552
2017-09-03T13:17:13.682Z,4464
2017-09-03T13:18:14.364Z,4392
2017-09-03T13:19:14.395Z,4332
2017-09-03T13:20:14.421Z,4216
2017-09-03T13:21:14.478Z,4100
2017-09-03T13:22:14.499Z,3960
2017-09-03T13:23:14.543Z,3820
2017-09-03T13:24:14.601Z,3720
2017-09-03T13:25:14.287Z,3588
2017-09-03T13:26:14.046Z,3460
2017-09-03T13:27:14.989Z,3332
2017-09-03T13:28:15.031Z,3260
2017-09-03T13:29:14.448Z,3188
2017-09-03T13:30:15.112Z,3112
2017-09-03T13:31:14.834Z,3016
2017-09-03T13:32:15.198Z,2956
2017-09-03T13:33:14.908Z,2628
2017-09-03T13:34:15.589Z,2652
2017-09-03T13:35:15.625Z,2864
2017-09-03T13:36:15.668Z,2840
2017-09-03T13:37:15.053Z,2808
2017-09-03T13:38:15.699Z,2820
2017-09-03T13:39:16.349Z,2820
2017-09-03T13:40:16.696Z,2808